createdAt,value
2018-12-29T00:00:30.801Z,85.20
2018-12-29T00:03:11.343Z,85.70
2018-12-29T00:05:51.360Z,85.50
2018-12-29T00:08:31.743Z,85.10
2018-12-29T00:11:11.477Z,85.50
2018-12-29T00:13:51.573Z,85.50
2018-12-29T00:16:31.554Z,84.90
2018-12-29T00:19:11.455Z,85.10
2018-12-29T00:21:52.076Z,85.00
2018-12-29T00:24:32.487Z,84.50
2018-12-29T00:27:12.165Z,84.50
2018-12-29T00:29:52.358Z,84.80
2018-12-29T00:32:32.348Z,85.00
2018-12-29T00:35:12.860Z,84.40
2018-12-29T00:37:52.591Z,84.00
2018-12-29T00:40:32.869Z,84.50
2018-12-29T00:43:13.086Z,83.90
2018-12-29T00:45:53.057Z,83.80
2018-12-29T00:48:33.278Z,84.00
2018-12-29T00:51:13.261Z,84.50
2018-12-29T00:53:53.206Z,84.80
2018-12-29T00:56:33.131Z,84.20
2018-12-29T00:59:13.521Z,84.00
2018-12-29T01:01:53.913Z,84.10
2018-12-29T01:04:33.977Z,84.30
2018-12-29T01:07:13.928Z,84.40
2018-12-29T01:09:54.433Z,84.60
2018-12-29T01:12:33.946Z,84.70
2018-12-29T01:15:13.806Z,84.80
2018-12-29T01:17:53.868Z,84.70
2018-12-29T01:20:34.132Z,84.70
2018-12-29T01:23:14.040Z,84.60
2018-12-29T01:25:54.624Z,84.70
2018-12-29T01:28:34.260Z,84.50
2018-12-29T01:31:14.240Z,84.60
2018-12-29T01:33:54.351Z,84.50
2018-12-29T01:36:34.326Z,84.40
2018-12-29T01:39:14.360Z,84.80
2018-12-29T01:41:54.044Z,85.20
2018-12-29T01:44:34.253Z,84.80
2018-12-29T01:47:14.252Z,84.60
2018-12-29T01:49:54.334Z,84.30
2018-12-29T01:52:34.550Z,84.60
2018-12-29T01:55:14.223Z,84.90
2018-12-29T01:57:54.335Z,84.80
2018-12-29T02:00:34.367Z,84.70
2018-12-29T02:03:14.505Z,84.30
2018-12-29T02:05:54.567Z,84.40
2018-12-29T02:08:34.760Z,84.60
2018-12-29T02:11:15.176Z,84.90
2018-12-29T02:13:55.052Z,84.90
2018-12-29T02:16:35.350Z,84.80
2018-12-29T02:19:15.438Z,85.00
2018-12-29T02:21:55.544Z,84.90
2018-12-29T02:24:36.084Z,85.00
2018-12-29T02:27:17.351Z,84.90
2018-12-29T02:29:57.213Z,84.80
2018-12-29T02:32:37.159Z,84.70
2018-12-29T02:35:17.104Z,84.60
2018-12-29T02:37:57.655Z,84.50
2018-12-29T02:40:37.796Z,84.60
2018-12-29T02:43:17.701Z,84.80
2018-12-29T02:45:57.780Z,84.50
2018-12-29T02:48:37.996Z,84.50
2018-12-29T02:51:18.285Z,84.40
2018-12-29T02:53:58.310Z,84.60
2018-12-29T02:56:38.627Z,84.60
2018-12-29T02:59:16.917Z,84.50
2018-12-29T03:02:03.868Z,84.10
2018-12-29T03:04:43.331Z,84.10
2018-12-29T03:07:23.756Z,84.60
2018-12-29T03:10:03.758Z,84.60
2018-12-29T03:12:43.929Z,84.40
2018-12-29T03:15:23.747Z,84.20
2018-12-29T03:18:03.894Z,84.20
2018-12-29T03:20:44.079Z,84.10
2018-12-29T03:23:24.143Z,84.00
2018-12-29T03:26:04.260Z,84.00
2018-12-29T03:28:44.300Z,83.80
2018-12-29T03:31:24.321Z,83.70
2018-12-29T03:34:04.016Z,83.80
2018-12-29T03:36:44.238Z,83.70
2018-12-29T03:39:24.796Z,83.80
2018-12-29T03:42:04.746Z,83.50
2018-12-29T03:44:44.639Z,83.50
2018-12-29T03:47:24.580Z,83.50
2018-12-29T03:50:04.469Z,83.70
2018-12-29T03:52:44.760Z,84.00
2018-12-29T03:55:25.113Z,84.00
2018-12-29T03:58:04.860Z,83.60
2018-12-29T04:00:44.705Z,83.70
2018-12-29T04:03:24.869Z,83.80
2018-12-29T04:06:04.844Z,83.40
2018-12-29T04:08:45.076Z,83.10
2018-12-29T04:11:24.980Z,83.20
2018-12-29T04:14:05.245Z,83.60
2018-12-29T04:16:45.239Z,83.70
2018-12-29T04:19:25.395Z,83.70
2018-12-29T04:22:05.329Z,83.30
2018-12-29T04:24:45.072Z,83.50
2018-12-29T04:27:25.032Z,83.50
2018-12-29T04:30:05.295Z,83.30
2018-12-29T04:32:45.584Z,83.60
2018-12-29T04:35:25.688Z,83.10
2018-12-29T04:38:05.990Z,83.10
2018-12-29T04:40:46.299Z,83.10
2018-12-29T04:43:26.416Z,82.90
2018-12-29T04:46:06.223Z,82.80
2018-12-29T04:48:46.192Z,82.90
2018-12-29T04:51:26.351Z,82.60
2018-12-29T04:54:06.254Z,82.30
2018-12-29T04:56:46.600Z,82.40
2018-12-29T04:59:26.542Z,82.60
2018-12-29T05:02:06.572Z,82.30
2018-12-29T05:04:46.822Z,82.50
2018-12-29T05:07:26.983Z,82.80
2018-12-29T05:10:07.216Z,83.10
2018-12-29T05:12:47.304Z,83.20
2018-12-29T05:15:27.553Z,83.20
2018-12-29T05:18:07.292Z,82.90
2018-12-29T05:20:47.262Z,83.10
2018-12-29T05:23:27.308Z,83.30
2018-12-29T05:26:07.495Z,83.20
2018-12-29T05:28:47.386Z,83.30
2018-12-29T05:31:27.717Z,83.00
2018-12-29T05:34:07.609Z,83.00
2018-12-29T05:36:47.968Z,82.90
2018-12-29T05:39:27.890Z,82.80
2018-12-29T05:42:07.979Z,82.70
2018-12-29T05:44:48.006Z,82.90
2018-12-29T05:47:27.813Z,83.00
2018-12-29T05:50:07.882Z,83.00
2018-12-29T05:52:49.114Z,83.00
2018-12-29T05:55:29.063Z,83.00
2018-12-29T05:58:09.266Z,82.90
2018-12-29T06:00:49.383Z,82.50
2018-12-29T06:03:29.482Z,82.80
2018-12-29T06:06:09.248Z,83.20
2018-12-29T06:08:49.908Z,83.30
2018-12-29T06:11:30.359Z,83.50
2018-12-29T06:14:10.584Z,82.90
2018-12-29T06:16:50.670Z,82.50
2018-12-29T06:19:30.930Z,82.20
2018-12-29T06:22:10.806Z,82.50
2018-12-29T06:24:50.819Z,82.90
2018-12-29T06:27:30.787Z,82.60
2018-12-29T06:30:10.770Z,82.40
2018-12-29T06:32:50.714Z,82.40
2018-12-29T06:35:30.835Z,82.20
2018-12-29T06:38:10.593Z,81.70
2018-12-29T06:40:50.916Z,81.80
2018-12-29T06:43:30.936Z,81.90
2018-12-29T06:46:11.040Z,81.70
2018-12-29T06:48:51.169Z,81.70
2018-12-29T06:51:31.456Z,82.30
2018-12-29T06:54:11.163Z,82.60
2018-12-29T06:56:51.228Z,82.50
2018-12-29T06:59:31.288Z,82.50
2018-12-29T07:02:11.288Z,82.80
2018-12-29T07:04:51.602Z,82.90
2018-12-29T07:07:31.578Z,82.80
2018-12-29T07:10:11.934Z,82.60
2018-12-29T07:12:51.802Z,82.50
2018-12-29T07:15:31.976Z,82.30
2018-12-29T07:18:12.155Z,82.30
2018-12-29T07:20:52.418Z,82.10
2018-12-29T07:23:32.299Z,82.40
2018-12-29T07:26:12.375Z,82.70
2018-12-29T07:28:53.020Z,82.80
2018-12-29T07:31:32.970Z,83.00
2018-12-29T07:34:12.780Z,82.60
2018-12-29T07:36:52.922Z,83.00
2018-12-29T07:39:32.962Z,83.10
2018-12-29T07:42:13.112Z,83.00
2018-12-29T07:44:53.125Z,82.80
2018-12-29T07:47:33.110Z,82.70
2018-12-29T07:50:13.640Z,82.80
2018-12-29T07:52:53.584Z,82.70
2018-12-29T07:55:33.588Z,82.80
2018-12-29T07:58:13.680Z,82.70
2018-12-29T08:00:53.532Z,82.50
2018-12-29T08:03:33.660Z,82.70
2018-12-29T08:06:14.896Z,83.00
2018-12-29T08:08:54.897Z,82.90
2018-12-29T08:11:34.992Z,82.80
2018-12-29T08:14:15.102Z,82.70
2018-12-29T08:19:54.125Z,81.90
2018-12-29T08:22:34.380Z,82.70
2018-12-29T08:25:14.102Z,82.70
2018-12-29T08:27:54.096Z,82.70
2018-12-29T08:30:33.990Z,82.70
2018-12-29T08:33:14.040Z,82.60
2018-12-29T08:35:54.302Z,82.40
2018-12-29T08:38:34.630Z,82.10
2018-12-29T08:41:15.286Z,82.20
2018-12-29T08:43:55.786Z,82.10
2018-12-29T08:46:35.922Z,82.30
2018-12-29T08:49:15.786Z,81.80
2018-12-29T08:51:56.019Z,81.50
2018-12-29T08:54:36.276Z,80.50
2018-12-29T08:57:16.161Z,80.20
2018-12-29T08:59:56.309Z,80.30
2018-12-29T09:02:36.195Z,80.40
2018-12-29T09:05:16.968Z,81.30
2018-12-29T09:07:56.651Z,80.00
2018-12-29T09:10:36.778Z,79.40
2018-12-29T09:13:16.703Z,79.10
2018-12-29T09:15:56.802Z,78.80
2018-12-29T09:18:36.898Z,78.00
2018-12-29T09:21:17.085Z,77.10
2018-12-29T09:23:57.088Z,77.80
2018-12-29T09:26:37.097Z,78.10
2018-12-29T09:29:17.298Z,78.60
2018-12-29T09:31:57.420Z,77.70
2018-12-29T09:34:37.493Z,78.50
2018-12-29T09:37:17.679Z,78.50
2018-12-29T09:39:57.778Z,78.70
2018-12-29T09:42:37.886Z,79.50
2018-12-29T09:45:17.756Z,78.50
2018-12-29T09:47:58.035Z,78.20
2018-12-29T09:50:38.463Z,77.50
2018-12-29T09:53:18.543Z,77.20
2018-12-29T09:55:58.233Z,77.70
2018-12-29T09:58:38.495Z,77.50
2018-12-29T10:01:18.614Z,76.60
2018-12-29T10:03:58.613Z,76.70
2018-12-29T10:06:38.960Z,77.10
2018-12-29T10:09:20.040Z,77.00
2018-12-29T10:12:00.172Z,77.60
2018-12-29T10:14:40.313Z,76.60
2018-12-29T10:17:26.790Z,76.50
2018-12-29T10:20:02.727Z,77.10
2018-12-29T10:22:42.461Z,77.60
2018-12-29T10:25:22.442Z,77.90
2018-12-29T10:28:02.752Z,78.00
2018-12-29T10:30:42.516Z,77.10
2018-12-29T10:33:22.539Z,77.50
2018-12-29T10:36:02.798Z,77.30
2018-12-29T10:38:43.890Z,77.10
2018-12-29T10:41:24.156Z,77.10
2018-12-29T10:44:03.857Z,76.70
2018-12-29T10:46:44.050Z,76.90
2018-12-29T10:49:24.419Z,76.40
2018-12-29T10:52:04.855Z,76.70
2018-12-29T10:54:45.302Z,76.70
2018-12-29T10:57:25.301Z,77.00
2018-12-29T11:00:05.240Z,76.80
2018-12-29T11:02:45.394Z,76.80
2018-12-29T11:05:26.502Z,77.40
2018-12-29T11:08:06.184Z,76.90
2018-12-29T11:10:46.152Z,77.10
2018-12-29T11:13:26.292Z,77.30
2018-12-29T11:16:06.499Z,77.30
2018-12-29T11:18:46.520Z,77.00
2018-12-29T11:21:28.325Z,76.60
2018-12-29T11:24:08.452Z,76.90
2018-12-29T11:26:48.367Z,76.60
2018-12-29T11:29:28.921Z,76.90
2018-12-29T11:32:08.734Z,77.00
2018-12-29T11:34:48.700Z,76.30
2018-12-29T11:37:29.113Z,76.70
2018-12-29T11:40:08.938Z,76.90
2018-12-29T11:42:47.958Z,76.60
2018-12-29T11:45:35.316Z,76.60
2018-12-29T11:48:15.442Z,77.00
2018-12-29T11:50:56.107Z,76.10
2018-12-29T11:53:36.212Z,76.10
2018-12-29T11:56:16.019Z,76.10
2018-12-29T11:58:55.963Z,76.60
2018-12-29T12:01:36.104Z,76.10
2018-12-29T12:04:16.139Z,76.50
2018-12-29T12:06:56.470Z,76.40
2018-12-29T12:09:37.519Z,76.20
2018-12-29T12:12:17.372Z,76.90
2018-12-29T12:14:57.440Z,77.00
2018-12-29T12:17:37.814Z,76.70
2018-12-29T12:20:17.820Z,76.90
2018-12-29T12:22:58.536Z,77.40
2018-12-29T12:25:38.572Z,77.20
2018-12-29T12:28:18.676Z,77.20
2018-12-29T12:30:58.668Z,77.20
2018-12-29T12:33:38.721Z,77.30
2018-12-29T12:36:18.984Z,77.10
2018-12-29T12:38:59.407Z,77.30
2018-12-29T12:41:40.224Z,76.90
2018-12-29T12:44:20.700Z,76.80
2018-12-29T12:47:00.539Z,76.80
2018-12-29T12:49:40.484Z,76.90
2018-12-29T12:52:20.793Z,76.80
2018-12-29T12:55:00.612Z,76.30
2018-12-29T12:57:40.990Z,78.00
2018-12-29T13:00:21.740Z,77.00
2018-12-29T13:03:01.921Z,76.30
2018-12-29T13:05:41.984Z,76.40
2018-12-29T13:08:22.034Z,76.40
2018-12-29T13:11:01.869Z,76.10
2018-12-29T13:13:42.335Z,75.90
2018-12-29T13:16:23.042Z,75.80
2018-12-29T13:19:03.157Z,76.00
2018-12-29T13:21:43.472Z,76.00
2018-12-29T13:24:23.224Z,76.30
2018-12-29T13:27:02.967Z,76.10
2018-12-29T13:29:43.042Z,75.80
2018-12-29T13:32:23.428Z,76.10
2018-12-29T13:35:03.299Z,76.10
2018-12-29T13:37:43.212Z,76.40
2018-12-29T13:40:23.152Z,76.30
2018-12-29T13:43:03.478Z,76.40
2018-12-29T13:45:43.797Z,76.80
2018-12-29T13:48:23.540Z,76.60
2018-12-29T13:51:03.540Z,76.00
2018-12-29T13:53:43.706Z,75.70
2018-12-29T13:56:23.966Z,76.00
2018-12-29T13:59:03.753Z,75.70
2018-12-29T14:01:43.677Z,75.90
2018-12-29T14:04:23.629Z,76.50
2018-12-29T14:07:03.601Z,76.50
2018-12-29T14:09:43.985Z,76.40
2018-12-29T14:12:22.283Z,77.10
2018-12-29T14:15:09.152Z,75.70
2018-12-29T14:17:48.775Z,75.50
2018-12-29T14:20:29.128Z,75.90
2018-12-29T14:23:09.380Z,75.20
2018-12-29T14:25:50.216Z,74.60
2018-12-29T14:28:30.408Z,75.10
2018-12-29T14:31:10.523Z,74.40
2018-12-29T14:33:50.609Z,74.10
2018-12-29T14:36:30.656Z,73.80
2018-12-29T14:39:11.037Z,74.60
2018-12-29T14:41:52.193Z,74.30
2018-12-29T14:44:32.124Z,74.20
2018-12-29T14:47:12.073Z,74.60
2018-12-29T14:49:52.281Z,74.50
2018-12-29T14:52:32.287Z,74.60
2018-12-29T14:55:12.435Z,74.10
2018-12-29T14:57:52.483Z,74.30
2018-12-29T15:00:32.656Z,74.50
2018-12-29T15:03:12.786Z,74.50
2018-12-29T15:05:52.893Z,74.40
2018-12-29T15:08:33.255Z,74.40
2018-12-29T15:11:13.055Z,74.90
2018-12-29T15:13:52.995Z,75.10
2018-12-29T15:16:33.263Z,74.60
2018-12-29T15:19:13.090Z,74.60
2018-12-29T15:21:53.226Z,74.90
2018-12-29T15:24:33.136Z,74.90
2018-12-29T15:27:13.036Z,74.40
2018-12-29T15:29:52.931Z,74.00
2018-12-29T15:32:33.021Z,74.60
2018-12-29T15:35:13.168Z,74.80
2018-12-29T15:37:53.158Z,74.70
2018-12-29T15:40:33.555Z,74.50
2018-12-29T15:43:13.594Z,74.50
2018-12-29T15:45:53.749Z,74.50
2018-12-29T15:48:34.572Z,74.60
2018-12-29T15:51:14.594Z,74.90
2018-12-29T15:53:55.497Z,74.70
2018-12-29T15:56:35.413Z,74.80
2018-12-29T15:59:18.602Z,75.10
2018-12-29T16:01:58.712Z,75.30
2018-12-29T16:04:38.602Z,74.90
2018-12-29T16:07:18.750Z,75.00
2018-12-29T16:09:58.907Z,75.10
2018-12-29T16:12:38.828Z,75.30
2018-12-29T16:15:19.028Z,75.40
2018-12-29T16:17:59.041Z,75.50
2018-12-29T16:20:39.152Z,75.10
2018-12-29T16:23:19.107Z,75.50
2018-12-29T16:25:59.418Z,75.50
2018-12-29T16:28:39.554Z,75.40
2018-12-29T16:31:19.540Z,75.60
2018-12-29T16:33:59.477Z,76.50
2018-12-29T16:36:40.144Z,76.00
2018-12-29T16:39:20.125Z,76.30
2018-12-29T16:42:00.316Z,76.30
2018-12-29T16:44:40.630Z,76.20
2018-12-29T16:47:20.446Z,75.80
2018-12-29T16:50:00.583Z,75.80
2018-12-29T16:52:40.519Z,76.00
2018-12-29T16:55:20.802Z,75.70
2018-12-29T16:58:00.808Z,75.90
2018-12-29T17:00:40.668Z,75.70
2018-12-29T17:03:20.706Z,75.70
2018-12-29T17:06:02.393Z,75.80
2018-12-29T17:08:42.781Z,75.70
2018-12-29T17:11:23.037Z,75.70
2018-12-29T17:14:02.928Z,75.80
2018-12-29T17:16:43.127Z,75.50
2018-12-29T17:19:22.948Z,75.60
2018-12-29T17:22:03.804Z,75.20
2018-12-29T17:24:44.102Z,75.40
2018-12-29T17:27:24.233Z,75.80
2018-12-29T17:30:04.505Z,75.60
2018-12-29T17:32:44.598Z,75.70
2018-12-29T17:35:24.788Z,75.60
2018-12-29T17:38:04.902Z,75.70
2018-12-29T17:40:45.018Z,75.90
2018-12-29T17:43:25.137Z,75.50
2018-12-29T17:46:05.634Z,75.50
2018-12-29T17:48:45.611Z,74.90
2018-12-29T17:51:25.652Z,74.70
2018-12-29T17:54:05.627Z,74.90
2018-12-29T17:56:45.688Z,74.90
2018-12-29T17:59:25.970Z,75.40
2018-12-29T18:02:06.174Z,75.30
2018-12-29T18:04:46.210Z,75.60
2018-12-29T18:07:26.519Z,75.80
2018-12-29T18:10:06.206Z,75.80
2018-12-29T18:12:46.326Z,76.10
2018-12-29T18:15:26.723Z,76.10
2018-12-29T18:18:06.706Z,76.30
2018-12-29T18:20:46.703Z,76.20
2018-12-29T18:23:26.634Z,75.90
2018-12-29T18:26:07.061Z,76.00
2018-12-29T18:28:47.082Z,76.20
2018-12-29T18:31:27.321Z,76.30
2018-12-29T18:34:07.561Z,76.80
2018-12-29T18:36:47.386Z,76.30
2018-12-29T18:39:27.379Z,76.40
2018-12-29T18:42:07.401Z,76.00
2018-12-29T18:44:47.224Z,75.90
2018-12-29T18:47:27.553Z,76.10
2018-12-29T18:50:07.554Z,76.10
2018-12-29T18:52:47.314Z,76.30
2018-12-29T18:55:27.335Z,76.50
2018-12-29T18:58:07.405Z,76.60
2018-12-29T19:00:46.074Z,76.80
2018-12-29T19:03:33.351Z,76.70
2018-12-29T19:06:41.394Z,76.70
2018-12-29T19:09:21.758Z,76.80
2018-12-29T19:12:01.522Z,76.90
2018-12-29T19:14:42.302Z,76.60
2018-12-29T19:17:22.455Z,76.70
2018-12-29T19:20:02.462Z,76.50
2018-12-29T19:22:42.439Z,76.50
2018-12-29T19:25:20.549Z,76.40
2018-12-29T19:28:01.239Z,76.40
2018-12-29T19:30:41.253Z,76.60
2018-12-29T19:33:21.425Z,76.50
2018-12-29T19:36:01.676Z,76.30
2018-12-29T19:38:41.479Z,75.90
2018-12-29T19:41:19.946Z,75.70
2018-12-29T19:44:07.196Z,75.50
2018-12-29T19:47:15.685Z,75.40
2018-12-29T19:49:55.688Z,75.40
2018-12-29T19:52:35.921Z,75.20
2018-12-29T19:55:15.820Z,75.40
2018-12-29T19:57:55.936Z,75.60
2018-12-29T20:00:37.342Z,75.90
2018-12-29T20:03:16.128Z,76.20
2018-12-29T20:06:10.994Z,76.70
2018-12-29T20:09:25.610Z,77.20
2018-12-29T20:12:06.028Z,77.40
2018-12-29T20:14:45.656Z,78.00
2018-12-29T20:17:26.063Z,77.80
2018-12-29T20:20:05.992Z,77.90
2018-12-29T20:22:46.244Z,78.10
2018-12-29T20:25:26.727Z,77.60
2018-12-29T20:28:06.853Z,77.50
2018-12-29T20:30:46.745Z,77.50
2018-12-29T20:33:26.996Z,77.30
2018-12-29T20:36:06.771Z,77.60
2018-12-29T20:38:47.316Z,77.60
2018-12-29T20:41:27.243Z,77.60
2018-12-29T20:44:07.312Z,77.80
2018-12-29T20:46:47.370Z,77.60
2018-12-29T20:49:29.471Z,77.60
2018-12-29T20:52:12.726Z,77.60
2018-12-29T20:54:52.728Z,77.20
2018-12-29T20:57:32.713Z,77.30
2018-12-29T21:00:12.912Z,77.10
2018-12-29T21:02:53.411Z,77.00
2018-12-29T21:05:34.162Z,77.40
2018-12-29T21:08:14.132Z,77.20
2018-12-29T21:10:54.234Z,77.40
2018-12-29T21:13:34.432Z,77.60
2018-12-29T21:16:14.072Z,77.60
2018-12-29T21:18:54.424Z,77.80
2018-12-29T21:21:34.363Z,78.00
2018-12-29T21:24:14.555Z,78.10
2018-12-29T21:26:54.442Z,78.10
2018-12-29T21:29:34.524Z,77.60
2018-12-29T21:32:14.544Z,78.00
2018-12-29T21:34:54.962Z,77.60
2018-12-29T21:37:34.786Z,77.60
2018-12-29T21:40:14.882Z,77.80
2018-12-29T21:42:55.856Z,77.70
2018-12-29T21:45:36.199Z,77.80
2018-12-29T21:48:16.195Z,77.60
2018-12-29T21:50:56.460Z,77.70
2018-12-29T21:53:36.778Z,77.30
2018-12-29T21:56:16.754Z,77.20
2018-12-29T21:58:56.673Z,76.80
2018-12-29T22:01:36.959Z,77.10
2018-12-29T22:04:17.092Z,76.70
2018-12-29T22:06:57.031Z,76.80
2018-12-29T22:09:37.605Z,76.00
2018-12-29T22:12:17.600Z,75.70
2018-12-29T22:14:57.856Z,75.50
2018-12-29T22:17:37.720Z,75.90
2018-12-29T22:20:17.973Z,75.70
2018-12-29T22:22:57.903Z,75.80
2018-12-29T22:25:37.790Z,76.60
2018-12-29T22:28:17.928Z,77.20
2018-12-29T22:30:58.276Z,77.70
2018-12-29T22:33:38.482Z,78.40
2018-12-29T22:36:18.758Z,79.10
2018-12-29T22:38:58.694Z,79.60
2018-12-29T22:41:38.480Z,79.80
2018-12-29T22:44:18.681Z,80.00
2018-12-29T22:46:58.760Z,80.00
2018-12-29T22:49:38.577Z,80.20
2018-12-29T22:52:19.112Z,80.40
2018-12-29T22:54:59.580Z,80.10
2018-12-29T22:57:39.215Z,80.00
2018-12-29T23:00:25.789Z,80.30
2018-12-29T23:03:27.548Z,80.40
2018-12-29T23:06:07.655Z,80.50
2018-12-29T23:08:47.478Z,80.30
2018-12-29T23:11:27.459Z,80.40
2018-12-29T23:14:07.652Z,80.20
2018-12-29T23:16:47.602Z,80.20
2018-12-29T23:19:27.603Z,79.70
2018-12-29T23:22:07.808Z,79.20
2018-12-29T23:24:49.192Z,79.30
2018-12-29T23:27:29.264Z,79.10
2018-12-29T23:30:09.055Z,78.90
2018-12-29T23:32:49.754Z,79.60
2018-12-29T23:35:30.694Z,79.00
2018-12-29T23:38:11.166Z,79.30
2018-12-29T23:40:51.099Z,79.70
2018-12-29T23:43:31.281Z,80.30
2018-12-29T23:46:11.247Z,80.50
2018-12-29T23:48:51.686Z,80.70
2018-12-29T23:51:31.645Z,81.10
2018-12-29T23:54:11.745Z,81.30
2018-12-29T23:56:52.100Z,81.60
2018-12-29T23:59:31.763Z,81.90
